Saltillo, PA (17253)

1:21 AM EDT on September 02, 2014 (GMT -0400)
KPATHREE2 | Change Station
CLOSE
Current Station
Personal Weather Station
Location: Three Springs, PA
Elevation: 800 ft
Nearby Weather Stations

Elev 800 ft 40.21 °N, 77.96 °W | Updated 50 seconds ago

Partly Cloudy
Partly Cloudy
60.9 °F
Feels Like 60.9 °F
N
-
Wind Variable Wind from North

Today
High -- | Low -- °F
--% Chance of Precip.
Yesterday
High -- | Low -- °F
Precip. -- in
6:40 AM 7:42 PM
Waxing Crescent, 48% visible
Pressure 29.98 in
Visibility 10.0 miles
Clouds Few 8000 ft
Dew Point 50 °F
Humidity 67%
Rainfall -999.00 in
Snow Depth Not available.
UV 0 out of 12
Pollen 6.70 out of 12
Air Quality Not available.
Flu Activity Not available.
METAR KAOO 020453Z AUTO 23008KT 10SM FEW080 23/19 A3001 RMK AO2 SLP151 T02330194 402780194

More Conditions Fewer Conditions

Pressure 29.98 in
Visibility 10.0 miles
Clouds Few 8000 ft
Dew Point 50 °F
Humidity 67%
Rainfall -999.00 in
Snow Depth Not available.
UV 0 out of 12
Pollen 6.70 out of 12
Air Quality Not available.
Flu Activity Not available.
METAR KAOO 020453Z AUTO 23008KT 10SM FEW080 23/19 A3001 RMK AO2 SLP151 T02330194 402780194

More Conditions Fewer Conditions

Nowcast | as of 12:27 am EDT on September 2, 2014

Bands of showers and thunderstorms will be across north central Pennsylvania overnight. At 1230 am...the leading edge of the activity was near Warren. Some storms will contain torrential downpours. Most of the activity will be west of a Wellsboro...State College line through 230 am. The showers and storms are moving northeast at 25 mph.

×

10-Day Weather Forecast

Almanac

Astronomy

Sep. 02, 2014 Rise Set
Actual Time 6:40 AM EDT 7:42 PM EDT
Civil Twilight 6:12 AM EDT 8:09 PM EDT
Nautical Twilight 5:39 AM EDT 8:42 PM EDT
Astronomical Twilight 5:04 AM EDT 9:17 PM EDT
Moon 2:23 PM EDT No Moon Set
Length of Visible Light 13h 57m
Length of Day
13h 01m
Tomorrow will be 2m 33s shorter.
Waxing Crescent, 48% of the Moon is Illuminated
Today
Waxing Crescent
Sep 2
First Quarter
Sep 8
Full
Sep 15
Last Quarter
Sep 24
New

Today's Extremes

State Highs State Lows

Community

WunderPhotos

Upload Photos

1,749,575 photos uploaded!

WunderBlogs® & News

Nearby

Snow Depth

Station Depth Elevation
No new snow has been reported.

Earthquake Activity

City Distance Mag. Time & Date
No recent earthquake activity has been reported nearby.
Minimum magnitude displayed is 2.5.

Coastal Water Temperatures

Place Temperature
No Stations Reporting

Nearby Weather Stations